sensor_id;sensor_type;location;lat;lon;timestamp;pressure;altitude;pressure_sealevel;temperature
71897;BMP280;59767;51.344;12.362;2023-08-31T00:01:12;162621.41;;;15.38
71897;BMP280;59767;51.344;12.362;2023-08-31T00:04:18;162612.25;;;15.35
71897;BMP280;59767;51.344;12.362;2023-08-31T00:07:22;162593.88;;;15.28
71897;BMP280;59767;51.344;12.362;2023-08-31T00:10:27;162580.75;;;15.23
71897;BMP280;59767;51.344;12.362;2023-08-31T00:13:31;162596.47;;;15.29
71897;BMP280;59767;51.344;12.362;2023-08-31T00:16:35;162582.09;;;15.23
71897;BMP280;59767;51.344;12.362;2023-08-31T00:19:40;162572.84;;;15.20
71897;BMP280;59767;51.344;12.362;2023-08-31T00:22:44;162563.69;;;15.16
71897;BMP280;59767;51.344;12.362;2023-08-31T00:25:48;162550.63;;;15.11
71897;BMP280;59767;51.344;12.362;2023-08-31T00:28:53;162534.84;;;15.05
71897;BMP280;59767;51.344;12.362;2023-08-31T00:31:57;162558.47;;;15.14
71897;BMP280;59767;51.344;12.362;2023-08-31T00:35:01;162541.41;;;15.08
71897;BMP280;59767;51.344;12.362;2023-08-31T00:38:07;162528.31;;;15.03
71897;BMP280;59767;51.344;12.362;2023-08-31T00:41:12;162536.19;;;15.06
71897;BMP280;59767;51.344;12.362;2023-08-31T00:44:16;162524.41;;;15.01
71897;BMP280;59767;51.344;12.362;2023-08-31T00:47:23;162516.53;;;14.98
71897;BMP280;59767;51.344;12.362;2023-08-31T00:50:27;162506.03;;;14.94
71897;BMP280;59767;51.344;12.362;2023-08-31T00:53:16;162494.25;;;14.90
71897;BMP280;59767;51.344;12.362;2023-08-31T00:56:21;162483.75;;;14.86
71897;BMP280;59767;51.344;12.362;2023-08-31T00:59:26;162467.97;;;14.80
71897;BMP280;59767;51.344;12.362;2023-08-31T01:02:58;162467.97;;;14.80
71897;BMP280;59767;51.344;12.362;2023-08-31T01:06:18;162451.03;;;14.73
71897;BMP280;59767;51.344;12.362;2023-08-31T01:12:55;162427.38;;;14.64
71897;BMP280;59767;51.344;12.362;2023-08-31T01:16:06;162422.09;;;14.62
71897;BMP280;59767;51.344;12.362;2023-08-31T01:19:29;162414.25;;;14.59
71897;BMP280;59767;51.344;12.362;2023-08-31T01:22:51;162410.31;;;14.58
71897;BMP280;59767;51.344;12.362;2023-08-31T01:25:59;162415.59;;;14.60
71897;BMP280;59767;51.344;12.362;2023-08-31T01:29:03;162415.59;;;14.60
71897;BMP280;59767;51.344;12.362;2023-08-31T01:32:08;162418.19;;;14.61
71897;BMP280;59767;51.344;12.362;2023-08-31T01:35:14;162414.25;;;14.59
71897;BMP280;59767;51.344;12.362;2023-08-31T01:38:21;162416.91;;;14.60
71897;BMP280;59767;51.344;12.362;2023-08-31T01:41:30;162409.03;;;14.57
71897;BMP280;59767;51.344;12.362;2023-08-31T01:44:38;162397.22;;;14.53
71897;BMP280;59767;51.344;12.362;2023-08-31T01:47:42;162378.88;;;14.46
71897;BMP280;59767;51.344;12.362;2023-08-31T01:50:47;162365.78;;;14.41
71897;BMP280;59767;51.344;12.362;2023-08-31T01:53:51;162351.34;;;14.35
71897;BMP280;59767;51.344;12.362;2023-08-31T01:56:56;162352.66;;;14.36
71897;BMP280;59767;51.344;12.362;2023-08-31T02:00:00;162343.50;;;14.32
71897;BMP280;59767;51.344;12.362;2023-08-31T02:03:05;162354.00;;;14.36
71897;BMP280;59767;51.344;12.362;2023-08-31T02:06:10;162343.50;;;14.32
71897;BMP280;59767;51.344;12.362;2023-08-31T02:09:15;162335.63;;;14.29
71897;BMP280;59767;51.344;12.362;2023-08-31T02:12:19;162326.47;;;14.26
71897;BMP280;59767;51.344;12.362;2023-08-31T02:15:23;162334.34;;;14.29
71897;BMP280;59767;51.344;12.362;2023-08-31T02:18:28;162318.56;;;14.23
71897;BMP280;59767;51.344;12.362;2023-08-31T02:21:33;162314.69;;;14.21
71897;BMP280;59767;51.344;12.362;2023-08-31T02:24:37;162308.13;;;14.19
71897;BMP280;59767;51.344;12.362;2023-08-31T02:27:43;162310.75;;;14.20
71897;BMP280;59767;51.344;12.362;2023-08-31T02:31:01;162310.75;;;14.20
71897;BMP280;59767;51.344;12.362;2023-08-31T02:34:05;162300.25;;;14.16
71897;BMP280;59767;51.344;12.362;2023-08-31T02:37:09;162291.09;;;14.12
71897;BMP280;59767;51.344;12.362;2023-08-31T02:40:14;162285.81;;;14.10
71897;BMP280;59767;51.344;12.362;2023-08-31T02:43:19;162289.75;;;14.12
71897;BMP280;59767;51.344;12.362;2023-08-31T02:46:24;162305.53;;;14.18
71897;BMP280;59767;51.344;12.362;2023-08-31T02:49:28;162312.06;;;14.20
71897;BMP280;59767;51.344;12.362;2023-08-31T02:52:32;162313.41;;;14.21
71897;BMP280;59767;51.344;12.362;2023-08-31T02:55:36;162313.41;;;14.21
71897;BMP280;59767;51.344;12.362;2023-08-31T02:58:40;162334.34;;;14.29
71897;BMP280;59767;51.344;12.362;2023-08-31T03:01:44;162339.56;;;14.31
71897;BMP280;59767;51.344;12.362;2023-08-31T03:04:50;162334.34;;;14.29
71897;BMP280;59767;51.344;12.362;2023-08-31T03:07:54;162326.47;;;14.26
71897;BMP280;59767;51.344;12.362;2023-08-31T03:10:59;162342.22;;;14.32
71897;BMP280;59767;51.344;12.362;2023-08-31T03:14:03;162355.31;;;14.37
71897;BMP280;59767;51.344;12.362;2023-08-31T03:17:07;162350.06;;;14.35
71897;BMP280;59767;51.344;12.362;2023-08-31T03:20:11;162360.56;;;14.39
71897;BMP280;59767;51.344;12.362;2023-08-31T03:23:15;162357.94;;;14.38
71897;BMP280;59767;51.344;12.362;2023-08-31T03:26:19;162373.66;;;14.44
71897;BMP280;59767;51.344;12.362;2023-08-31T03:29:23;162368.38;;;14.42
71897;BMP280;59767;51.344;12.362;2023-08-31T03:32:27;162389.38;;;14.50
71897;BMP280;59767;51.344;12.362;2023-08-31T03:35:32;162377.56;;;14.45
71897;BMP280;59767;51.344;12.362;2023-08-31T03:38:36;162373.66;;;14.44
71897;BMP280;59767;51.344;12.362;2023-08-31T03:41:41;162377.56;;;14.45
71897;BMP280;59767;51.344;12.362;2023-08-31T03:44:45;162392.03;;;14.51
71897;BMP280;59767;51.344;12.362;2023-08-31T03:47:49;162392.03;;;14.51
71897;BMP280;59767;51.344;12.362;2023-08-31T03:50:54;162386.75;;;14.49
71897;BMP280;59767;51.344;12.362;2023-08-31T03:53:59;162369.72;;;14.42
71897;BMP280;59767;51.344;12.362;2023-08-31T03:57:03;162367.09;;;14.41
71897;BMP280;59767;51.344;12.362;2023-08-31T04:00:08;162380.22;;;14.46
71897;BMP280;59767;51.344;12.362;2023-08-31T04:03:16;162376.22;;;14.45
71897;BMP280;59767;51.344;12.362;2023-08-31T04:06:21;162373.66;;;14.44
71897;BMP280;59767;51.344;12.362;2023-08-31T04:09:25;162376.22;;;14.45
71897;BMP280;59767;51.344;12.362;2023-08-31T04:12:29;162372.34;;;14.43
71897;BMP280;59767;51.344;12.362;2023-08-31T04:15:34;162375.00;;;14.44
71897;BMP280;59767;51.344;12.362;2023-08-31T04:18:38;162390.72;;;14.50
71897;BMP280;59767;51.344;12.362;2023-08-31T04:21:43;162402.47;;;14.55
71897;BMP280;59767;51.344;12.362;2023-08-31T04:24:47;162389.38;;;14.50
71897;BMP280;59767;51.344;12.362;2023-08-31T04:27:51;162394.59;;;14.52
71897;BMP280;59767;51.344;12.362;2023-08-31T04:30:55;162407.72;;;14.57
71897;BMP280;59767;51.344;12.362;2023-08-31T04:33:59;162405.16;;;14.56
71897;BMP280;59767;51.344;12.362;2023-08-31T04:37:04;162414.25;;;14.59
71897;BMP280;59767;51.344;12.362;2023-08-31T04:40:08;162418.19;;;14.61
71897;BMP280;59767;51.344;12.362;2023-08-31T04:43:13;162414.25;;;14.59
71897;BMP280;59767;51.344;12.362;2023-08-31T04:46:17;162436.59;;;14.68
71897;BMP280;59767;51.344;12.362;2023-08-31T04:49:21;162431.31;;;14.66
71897;BMP280;59767;51.344;12.362;2023-08-31T04:52:25;162441.81;;;14.70
71897;BMP280;59767;51.344;12.362;2023-08-31T04:55:29;162440.47;;;14.69
71897;BMP280;59767;51.344;12.362;2023-08-31T04:58:33;162436.59;;;14.68
71897;BMP280;59767;51.344;12.362;2023-08-31T05:01:37;162427.38;;;14.64
71897;BMP280;59767;51.344;12.362;2023-08-31T05:04:41;162435.25;;;14.67
71897;BMP280;59767;51.344;12.362;2023-08-31T05:07:46;162433.97;;;14.67
71897;BMP280;59767;51.344;12.362;2023-08-31T05:10:50;162439.16;;;14.69
71897;BMP280;59767;51.344;12.362;2023-08-31T05:13:54;162447.03;;;14.72
71897;BMP280;59767;51.344;12.362;2023-08-31T05:16:58;162452.25;;;14.74
71897;BMP280;59767;51.344;12.362;2023-08-31T05:20:02;162458.88;;;14.76
71897;BMP280;59767;51.344;12.362;2023-08-31T05:23:12;162448.38;;;14.72
71897;BMP280;59767;51.344;12.362;2023-08-31T05:26:16;162458.88;;;14.76
71897;BMP280;59767;51.344;12.362;2023-08-31T05:29:21;162467.97;;;14.80
71897;BMP280;59767;51.344;12.362;2023-08-31T05:32:28;162502.09;;;14.93
71897;BMP280;59767;51.344;12.362;2023-08-31T05:35:32;162513.84;;;14.97
71897;BMP280;59767;51.344;12.362;2023-08-31T05:38:36;162512.56;;;14.97
71897;BMP280;59767;51.344;12.362;2023-08-31T05:41:43;162511.28;;;14.96
71897;BMP280;59767;51.344;12.362;2023-08-31T05:44:48;162515.19;;;14.98
71897;BMP280;59767;51.344;12.362;2023-08-31T05:47:52;162521.75;;;15.00
71897;BMP280;59767;51.344;12.362;2023-08-31T05:50:56;162525.75;;;15.02
71897;BMP280;59767;51.344;12.362;2023-08-31T05:54:00;162537.53;;;15.06
71897;BMP280;59767;51.344;12.362;2023-08-31T05:57:05;162540.13;;;15.07
71897;BMP280;59767;51.344;12.362;2023-08-31T06:00:09;162554.56;;;15.13
71897;BMP280;59767;51.344;12.362;2023-08-31T06:03:14;162574.19;;;15.20
71897;BMP280;59767;51.344;12.362;2023-08-31T06:06:19;162589.91;;;15.26
71897;BMP280;59767;51.344;12.362;2023-08-31T06:09:23;162589.91;;;15.26
71897;BMP280;59767;51.344;12.362;2023-08-31T06:12:28;162600.41;;;15.30
71897;BMP280;59767;51.344;12.362;2023-08-31T06:15:32;162616.16;;;15.36
71897;BMP280;59767;51.344;12.362;2023-08-31T06:18:36;162629.25;;;15.41
71897;BMP280;59767;51.344;12.362;2023-08-31T06:21:40;162634.50;;;15.43
71897;BMP280;59767;51.344;12.362;2023-08-31T06:24:45;162631.88;;;15.42
71897;BMP280;59767;51.344;12.362;2023-08-31T06:27:49;162651.53;;;15.50
71897;BMP280;59767;51.344;12.362;2023-08-31T06:30:54;162647.59;;;15.48
71897;BMP280;59767;51.344;12.362;2023-08-31T06:33:58;162635.81;;;15.44
71897;BMP280;59767;51.344;12.362;2023-08-31T06:37:02;162647.59;;;15.48
71897;BMP280;59767;51.344;12.362;2023-08-31T06:40:09;162662.06;;;15.54
71897;BMP280;59767;51.344;12.362;2023-08-31T06:43:13;162660.72;;;15.53
71897;BMP280;59767;51.344;12.362;2023-08-31T06:46:18;162688.22;;;15.64
71897;BMP280;59767;51.344;12.362;2023-08-31T06:49:28;162714.47;;;15.74
71897;BMP280;59767;51.344;12.362;2023-08-31T06:52:32;162705.28;;;15.70
71897;BMP280;59767;51.344;12.362;2023-08-31T06:55:40;162738.09;;;15.83
71897;BMP280;59767;51.344;12.362;2023-08-31T06:58:44;162756.44;;;15.90
71897;BMP280;59767;51.344;12.362;2023-08-31T07:01:49;162772.16;;;15.96
71897;BMP280;59767;51.344;12.362;2023-08-31T07:04:54;162794.50;;;16.04
71897;BMP280;59767;51.344;12.362;2023-08-31T07:07:58;162803.69;;;16.08
71897;BMP280;59767;51.344;12.362;2023-08-31T07:11:03;162835.16;;;16.20
71897;BMP280;59767;51.344;12.362;2023-08-31T07:14:07;162845.66;;;16.24
71897;BMP280;59767;51.344;12.362;2023-08-31T07:17:12;162861.41;;;16.30
71897;BMP280;59767;51.344;12.362;2023-08-31T07:20:16;162853.50;;;16.27
71897;BMP280;59767;51.344;12.362;2023-08-31T07:23:20;162879.69;;;16.37
71897;BMP280;59767;51.344;12.362;2023-08-31T07:26:25;162915.16;;;16.50
71897;BMP280;59767;51.344;12.362;2023-08-31T07:29:29;162957.09;;;16.66
71897;BMP280;59767;51.344;12.362;2023-08-31T07:32:34;162924.34;;;16.54
71897;BMP280;59767;51.344;12.362;2023-08-31T07:35:38;162930.84;;;16.56
71897;BMP280;59767;51.344;12.362;2023-08-31T07:38:42;162937.41;;;16.59
71897;BMP280;59767;51.344;12.362;2023-08-31T07:41:46;162975.47;;;16.73
71897;BMP280;59767;51.344;12.362;2023-08-31T07:44:52;163060.78;;;17.06
71897;BMP280;59767;51.344;12.362;2023-08-31T07:47:57;163155.22;;;17.42
71897;BMP280;59767;51.344;12.362;2023-08-31T07:51:01;163220.81;;;17.67
71897;BMP280;59767;51.344;12.362;2023-08-31T07:54:08;163219.53;;;17.66
71897;BMP280;59767;51.344;12.362;2023-08-31T07:57:12;163243.13;;;17.75
71897;BMP280;59767;51.344;12.362;2023-08-31T08:00:16;163274.66;;;17.87
71897;BMP280;59767;51.344;12.362;2023-08-31T08:03:20;163375.69;;;18.26
71897;BMP280;59767;51.344;12.362;2023-08-31T08:06:25;163417.72;;;18.42
71897;BMP280;59767;51.344;12.362;2023-08-31T08:09:29;163422.97;;;18.44
71897;BMP280;59767;51.344;12.362;2023-08-31T08:12:37;163386.22;;;18.30
71897;BMP280;59767;51.344;12.362;2023-08-31T08:15:42;163316.63;;;18.03
71897;BMP280;59767;51.344;12.362;2023-08-31T08:18:46;163323.25;;;18.06
71897;BMP280;59767;51.344;12.362;2023-08-31T08:21:51;163317.97;;;18.04
71897;BMP280;59767;51.344;12.362;2023-08-31T08:24:55;163311.44;;;18.01
71897;BMP280;59767;51.344;12.362;2023-08-31T08:28:00;163286.50;;;17.92
71897;BMP280;59767;51.344;12.362;2023-08-31T08:31:04;163287.78;;;17.92
71897;BMP280;59767;51.344;12.362;2023-08-31T08:34:08;163239.19;;;17.74
71897;BMP280;59767;51.344;12.362;2023-08-31T08:37:13;163195.91;;;17.57
71897;BMP280;59767;51.344;12.362;2023-08-31T08:40:17;163152.59;;;17.41
71897;BMP280;59767;51.344;12.362;2023-08-31T08:43:25;163100.06;;;17.21
71897;BMP280;59767;51.344;12.362;2023-08-31T08:46:31;163092.22;;;17.18
71897;BMP280;59767;51.344;12.362;2023-08-31T08:49:36;163087.03;;;17.16
71897;BMP280;59767;51.344;12.362;2023-08-31T08:52:40;163097.50;;;17.20
71897;BMP280;59767;51.344;12.362;2023-08-31T08:55:45;163130.28;;;17.32
71897;BMP280;59767;51.344;12.362;2023-08-31T08:58:49;163161.84;;;17.44
71897;BMP280;59767;51.344;12.362;2023-08-31T09:01:54;163165.72;;;17.46
71897;BMP280;59767;51.344;12.362;2023-08-31T09:04:58;163189.31;;;17.55
71897;BMP280;59767;51.344;12.362;2023-08-31T09:08:05;163173.63;;;17.49
71897;BMP280;59767;51.344;12.362;2023-08-31T09:11:19;163152.59;;;17.41
71897;BMP280;59767;51.344;12.362;2023-08-31T09:14:24;163097.50;;;17.20
71897;BMP280;59767;51.344;12.362;2023-08-31T09:17:39;163067.31;;;17.08
71897;BMP280;59767;51.344;12.362;2023-08-31T09:20:45;163062.06;;;17.06
71897;BMP280;59767;51.344;12.362;2023-08-31T09:23:59;163059.47;;;17.05
71897;BMP280;59767;51.344;12.362;2023-08-31T09:27:05;163026.63;;;16.93
71897;BMP280;59767;51.344;12.362;2023-08-31T09:30:10;163009.56;;;16.86
71897;BMP280;59767;51.344;12.362;2023-08-31T09:33:16;163000.38;;;16.83
71897;BMP280;59767;51.344;12.362;2023-08-31T09:36:21;163017.47;;;16.89
71897;BMP280;59767;51.344;12.362;2023-08-31T09:39:35;163049.00;;;17.01
71897;BMP280;59767;51.344;12.362;2023-08-31T09:42:39;163128.94;;;17.32
71897;BMP280;59767;51.344;12.362;2023-08-31T09:45:44;163205.06;;;17.61
71897;BMP280;59767;51.344;12.362;2023-08-31T09:48:49;163272.03;;;17.86
71897;BMP280;59767;51.344;12.362;2023-08-31T09:51:54;163303.47;;;17.98
71897;BMP280;59767;51.344;12.362;2023-08-31T09:54:59;163341.56;;;18.13
71897;BMP280;59767;51.344;12.362;2023-08-31T09:58:06;163392.78;;;18.32
71897;BMP280;59767;51.344;12.362;2023-08-31T10:01:19;163486.00;;;18.68
71897;BMP280;59767;51.344;12.362;2023-08-31T10:04:34;163539.84;;;18.88
71897;BMP280;59767;51.344;12.362;2023-08-31T10:07:39;163636.94;;;19.25
71897;BMP280;59767;51.344;12.362;2023-08-31T10:10:43;163828.69;;;19.98
71897;BMP280;59767;51.344;12.362;2023-08-31T10:13:49;163915.38;;;20.31
71897;BMP280;59767;51.344;12.362;2023-08-31T10:16:55;163949.53;;;20.44
71897;BMP280;59767;51.344;12.362;2023-08-31T10:20:00;163985.06;;;20.57
71897;BMP280;59767;51.344;12.362;2023-08-31T10:23:05;164090.19;;;20.97
71897;BMP280;59767;51.344;12.362;2023-08-31T10:26:10;164103.28;;;21.02
71897;BMP280;59767;51.344;12.362;2023-08-31T10:29:27;164040.28;;;20.78
71897;BMP280;59767;51.344;12.362;2023-08-31T10:32:33;164102.00;;;21.02
71897;BMP280;59767;51.344;12.362;2023-08-31T10:35:41;163974.53;;;20.53
71897;BMP280;59767;51.344;12.362;2023-08-31T10:38:59;163922.00;;;20.33
71897;BMP280;59767;51.344;12.362;2023-08-31T10:42:04;163920.66;;;20.33
71897;BMP280;59767;51.344;12.362;2023-08-31T10:45:08;163873.41;;;20.15
71897;BMP280;59767;51.344;12.362;2023-08-31T10:48:12;163832.66;;;19.99
71897;BMP280;59767;51.344;12.362;2023-08-31T10:51:16;163836.56;;;20.01
71897;BMP280;59767;51.344;12.362;2023-08-31T10:54:23;163853.66;;;20.07
71897;BMP280;59767;51.344;12.362;2023-08-31T10:57:31;163870.72;;;20.14
71897;BMP280;59767;51.344;12.362;2023-08-31T11:00:52;163928.53;;;20.36
71897;BMP280;59767;51.344;12.362;2023-08-31T11:03:57;163982.41;;;20.56
71897;BMP280;59767;51.344;12.362;2023-08-31T11:07:19;164024.44;;;20.72
71897;BMP280;59767;51.344;12.362;2023-08-31T11:10:24;163979.75;;;20.55
71897;BMP280;59767;51.344;12.362;2023-08-31T11:13:32;164010.00;;;20.67
71897;BMP280;59767;51.344;12.362;2023-08-31T11:16:40;163949.53;;;20.44
71897;BMP280;59767;51.344;12.362;2023-08-31T11:19:44;163969.28;;;20.51
71897;BMP280;59767;51.344;12.362;2023-08-31T11:22:51;163979.75;;;20.55
71897;BMP280;59767;51.344;12.362;2023-08-31T11:25:59;163971.91;;;20.52
71897;BMP280;59767;51.344;12.362;2023-08-31T11:29:07;163978.44;;;20.55
71897;BMP280;59767;51.344;12.362;2023-08-31T11:32:12;163985.06;;;20.57
71897;BMP280;59767;51.344;12.362;2023-08-31T11:35:16;163971.91;;;20.52
71897;BMP280;59767;51.344;12.362;2023-08-31T11:38:21;163954.78;;;20.46
71897;BMP280;59767;51.344;12.362;2023-08-31T11:41:30;163937.72;;;20.39
71897;BMP280;59767;51.344;12.362;2023-08-31T11:44:34;163919.38;;;20.32
71897;BMP280;59767;51.344;12.362;2023-08-31T11:47:40;163953.50;;;20.45
71897;BMP280;59767;51.344;12.362;2023-08-31T11:50:45;163949.53;;;20.44
71897;BMP280;59767;51.344;12.362;2023-08-31T11:53:49;163971.91;;;20.52
71897;BMP280;59767;51.344;12.362;2023-08-31T11:56:55;163987.63;;;20.58
71897;BMP280;59767;51.344;12.362;2023-08-31T11:59:59;163996.88;;;20.62
71897;BMP280;59767;51.344;12.362;2023-08-31T12:03:03;163970.56;;;20.52
71897;BMP280;59767;51.344;12.362;2023-08-31T12:06:10;163935.09;;;20.38
71897;BMP280;59767;51.344;12.362;2023-08-31T12:09:15;163925.91;;;20.35
71897;BMP280;59767;51.344;12.362;2023-08-31T12:12:23;163952.22;;;20.45
71897;BMP280;59767;51.344;12.362;2023-08-31T12:15:31;163960.09;;;20.48
71897;BMP280;59767;51.344;12.362;2023-08-31T12:18:37;164037.59;;;20.77
71897;BMP280;59767;51.344;12.362;2023-08-31T12:21:46;164084.88;;;20.95
71897;BMP280;59767;51.344;12.362;2023-08-31T12:24:50;164138.75;;;21.16
71897;BMP280;59767;51.344;12.362;2023-08-31T12:27:54;164120.34;;;21.09
71897;BMP280;59767;51.344;12.362;2023-08-31T12:30:59;164103.28;;;21.02
71897;BMP280;59767;51.344;12.362;2023-08-31T12:34:03;164116.41;;;21.07
71897;BMP280;59767;51.344;12.362;2023-08-31T12:37:10;164069.16;;;20.89
71897;BMP280;59767;51.344;12.362;2023-08-31T12:40:14;164042.84;;;20.79
71897;BMP280;59767;51.344;12.362;2023-08-31T12:43:19;164027.09;;;20.73
71897;BMP280;59767;51.344;12.362;2023-08-31T12:46:24;164017.91;;;20.70
71897;BMP280;59767;51.344;12.362;2023-08-31T12:49:29;164000.78;;;20.63
71897;BMP280;59767;51.344;12.362;2023-08-31T12:52:33;164011.28;;;20.67
71897;BMP280;59767;51.344;12.362;2023-08-31T12:55:37;164017.91;;;20.70
71897;BMP280;59767;51.344;12.362;2023-08-31T12:58:42;164033.63;;;20.76
71897;BMP280;59767;51.344;12.362;2023-08-31T13:01:46;164027.09;;;20.73
71897;BMP280;59767;51.344;12.362;2023-08-31T13:04:51;164057.28;;;20.85
71897;BMP280;59767;51.344;12.362;2023-08-31T13:07:55;164074.34;;;20.91
71897;BMP280;59767;51.344;12.362;2023-08-31T13:10:59;164070.44;;;20.90
71897;BMP280;59767;51.344;12.362;2023-08-31T13:14:04;164007.38;;;20.66
71897;BMP280;59767;51.344;12.362;2023-08-31T13:17:08;163940.34;;;20.40
71897;BMP280;59767;51.344;12.362;2023-08-31T13:20:12;163952.22;;;20.45
71897;BMP280;59767;51.344;12.362;2023-08-31T13:23:17;163929.88;;;20.36
71897;BMP280;59767;51.344;12.362;2023-08-31T13:26:21;163945.59;;;20.42
71897;BMP280;59767;51.344;12.362;2023-08-31T13:29:25;163920.66;;;20.33
71897;BMP280;59767;51.344;12.362;2023-08-31T13:32:30;163869.44;;;20.13
71897;BMP280;59767;51.344;12.362;2023-08-31T13:35:35;163847.09;;;20.05
71897;BMP280;59767;51.344;12.362;2023-08-31T13:38:39;163851.03;;;20.06
71897;BMP280;59767;51.344;12.362;2023-08-31T13:41:43;163835.28;;;20.00
71897;BMP280;59767;51.344;12.362;2023-08-31T13:44:49;163879.91;;;20.17
71897;BMP280;59767;51.344;12.362;2023-08-31T13:47:54;163906.22;;;20.27
71897;BMP280;59767;51.344;12.362;2023-08-31T13:50:58;163916.72;;;20.31
71897;BMP280;59767;51.344;12.362;2023-08-31T13:54:02;163893.06;;;20.22
71897;BMP280;59767;51.344;12.362;2023-08-31T13:57:11;163908.84;;;20.28
71897;BMP280;59767;51.344;12.362;2023-08-31T14:00:21;163932.50;;;20.37
71897;BMP280;59767;51.344;12.362;2023-08-31T14:03:25;163962.72;;;20.49
71897;BMP280;59767;51.344;12.362;2023-08-31T14:06:29;163943.03;;;20.41
71897;BMP280;59767;51.344;12.362;2023-08-31T14:09:33;163916.72;;;20.31
71897;BMP280;59767;51.344;12.362;2023-08-31T14:12:38;163879.91;;;20.17
71897;BMP280;59767;51.344;12.362;2023-08-31T14:15:46;163890.41;;;20.21
71897;BMP280;59767;51.344;12.362;2023-08-31T14:18:51;163890.41;;;20.21
71897;BMP280;59767;51.344;12.362;2023-08-31T14:21:55;163864.19;;;20.11
71897;BMP280;59767;51.344;12.362;2023-08-31T14:25:00;163890.41;;;20.21
71897;BMP280;59767;51.344;12.362;2023-08-31T14:28:05;163883.88;;;20.19
71897;BMP280;59767;51.344;12.362;2023-08-31T14:31:09;163848.41;;;20.05
71897;BMP280;59767;51.344;12.362;2023-08-31T14:34:13;163820.84;;;19.95
71897;BMP280;59767;51.344;12.362;2023-08-31T14:37:18;163815.53;;;19.93
71897;BMP280;59767;51.344;12.362;2023-08-31T14:40:22;163812.91;;;19.92
71897;BMP280;59767;51.344;12.362;2023-08-31T14:43:26;163713.09;;;19.54
71897;BMP280;59767;51.344;12.362;2023-08-31T14:46:31;163638.28;;;19.26
71897;BMP280;59767;51.344;12.362;2023-08-31T14:49:38;163626.47;;;19.21
71897;BMP280;59767;51.344;12.362;2023-08-31T14:52:43;163592.31;;;19.08
71897;BMP280;59767;51.344;12.362;2023-08-31T14:55:49;163558.19;;;18.95
71897;BMP280;59767;51.344;12.362;2023-08-31T14:58:53;163547.69;;;18.91
71897;BMP280;59767;51.344;12.362;2023-08-31T15:01:58;163513.56;;;18.78
71897;BMP280;59767;51.344;12.362;2023-08-31T15:05:05;163492.56;;;18.70
71897;BMP280;59767;51.344;12.362;2023-08-31T15:08:10;163499.09;;;18.73
71897;BMP280;59767;51.344;12.362;2023-08-31T15:11:16;163504.38;;;18.75
71897;BMP280;59767;51.344;12.362;2023-08-31T15:14:20;163467.63;;;18.61
71897;BMP280;59767;51.344;12.362;2023-08-31T15:17:25;163478.13;;;18.65
71897;BMP280;59767;51.344;12.362;2023-08-31T15:20:29;163483.31;;;18.67
71897;BMP280;59767;51.344;12.362;2023-08-31T15:23:33;163493.84;;;18.71
71897;BMP280;59767;51.344;12.362;2023-08-31T15:26:38;163501.75;;;18.74
71897;BMP280;59767;51.344;12.362;2023-08-31T15:29:43;163509.59;;;18.77
71897;BMP280;59767;51.344;12.362;2023-08-31T15:32:49;163518.78;;;18.80
71897;BMP280;59767;51.344;12.362;2023-08-31T15:36:06;163546.38;;;18.91
71897;BMP280;59767;51.344;12.362;2023-08-31T15:39:10;163571.31;;;19.00
71897;BMP280;59767;51.344;12.362;2023-08-31T15:42:16;163580.50;;;19.04
71897;BMP280;59767;51.344;12.362;2023-08-31T15:45:21;163572.66;;;19.01
71897;BMP280;59767;51.344;12.362;2023-08-31T15:48:26;163576.56;;;19.02
71897;BMP280;59767;51.344;12.362;2023-08-31T15:51:32;163545.03;;;18.90
71897;BMP280;59767;51.344;12.362;2023-08-31T15:54:37;163520.06;;;18.81
71897;BMP280;59767;51.344;12.362;2023-08-31T15:57:42;163499.09;;;18.73
71897;BMP280;59767;51.344;12.362;2023-08-31T16:00:46;163488.63;;;18.69
71897;BMP280;59767;51.344;12.362;2023-08-31T16:03:51;163468.94;;;18.61
71897;BMP280;59767;51.344;12.362;2023-08-31T16:06:55;163466.28;;;18.60
71897;BMP280;59767;51.344;12.362;2023-08-31T16:10:00;163454.47;;;18.56
71897;BMP280;59767;51.344;12.362;2023-08-31T16:13:04;163462.31;;;18.59
71897;BMP280;59767;51.344;12.362;2023-08-31T16:16:08;163459.72;;;18.58
71897;BMP280;59767;51.344;12.362;2023-08-31T16:19:13;163463.66;;;18.59
71897;BMP280;59767;51.344;12.362;2023-08-31T16:22:17;163467.63;;;18.61
71897;BMP280;59767;51.344;12.362;2023-08-31T16:25:22;163459.72;;;18.58
71897;BMP280;59767;51.344;12.362;2023-08-31T16:28:26;163433.44;;;18.48
71897;BMP280;59767;51.344;12.362;2023-08-31T16:31:31;163430.88;;;18.47
71897;BMP280;59767;51.344;12.362;2023-08-31T16:34:36;163412.44;;;18.40
71897;BMP280;59767;51.344;12.362;2023-08-31T16:37:41;163398.00;;;18.34
71897;BMP280;59767;51.344;12.362;2023-08-31T16:40:46;163399.28;;;18.35
71897;BMP280;59767;51.344;12.362;2023-08-31T16:43:50;163399.28;;;18.35
71897;BMP280;59767;51.344;12.362;2023-08-31T16:46:57;163365.22;;;18.22
71897;BMP280;59767;51.344;12.362;2023-08-31T16:50:01;163345.50;;;18.14
71897;BMP280;59767;51.344;12.362;2023-08-31T16:53:07;163320.56;;;18.05
71897;BMP280;59767;51.344;12.362;2023-08-31T16:56:12;163299.59;;;17.97
71897;BMP280;59767;51.344;12.362;2023-08-31T16:59:16;163272.03;;;17.86
71897;BMP280;59767;51.344;12.362;2023-08-31T17:02:21;163262.84;;;17.83
71897;BMP280;59767;51.344;12.362;2023-08-31T17:05:27;163247.09;;;17.77
71897;BMP280;59767;51.344;12.362;2023-08-31T17:08:33;163253.59;;;17.79
71897;BMP280;59767;51.344;12.362;2023-08-31T17:11:36;163247.09;;;17.77
71897;BMP280;59767;51.344;12.362;2023-08-31T17:14:41;163247.09;;;17.77
71897;BMP280;59767;51.344;12.362;2023-08-31T17:17:49;163237.91;;;17.73
71897;BMP280;59767;51.344;12.362;2023-08-31T17:20:56;163205.06;;;17.61